Terminal Aerodrome Forecast
Issued by NWS Wilmington, OH

Current Version | Previous Version | Text Only | Print | Product List | Glossary Off
Versions: 1 2 3 4 5 6 7 8 9 10 11 12 13 14 15 16 17 18 19 20 21 22 23

000
FTUS41 KILN 242100 AAA
TAFDAY
TAF AMD
KDAY 242101Z 2421/2518 24022G32KT P6SM VCSH OVC025
     FM250200 23015G25KT P6SM OVC025
     FM251100 25012G20KT P6SM OVC022
     FM251600 25012KT P6SM OVC025=

USA.gov is the U.S. government's official web portal to all federal, state and local government web resources and services.